createdAt,value
2023-04-10T00:01:36.309Z,16.98
2023-04-10T00:04:04.909Z,19.00
2023-04-10T00:06:33.286Z,13.82
2023-04-10T00:09:01.050Z,14.25
2023-04-10T00:11:29.437Z,11.95
2023-04-10T00:13:56.867Z,10.70
2023-04-10T00:16:24.329Z,10.13
2023-04-10T00:18:51.858Z,9.48
2023-04-10T00:21:19.242Z,9.73
2023-04-10T00:23:46.682Z,11.07
2023-04-10T00:26:14.270Z,10.50
2023-04-10T00:28:43.575Z,14.15
2023-04-10T00:31:11.258Z,10.25
2023-04-10T00:33:38.741Z,15.98
2023-04-10T00:36:06.653Z,11.20
2023-04-10T00:38:34.174Z,12.10
2023-04-10T00:41:01.652Z,13.25
2023-04-10T00:43:29.121Z,9.45
2023-04-10T00:45:56.754Z,10.80
2023-04-10T00:48:24.628Z,12.32
2023-04-10T00:50:52.261Z,22.40
2023-04-10T00:53:19.846Z,12.73
2023-04-10T00:55:48.224Z,9.73
2023-04-10T00:58:15.837Z,12.85
2023-04-10T01:00:43.369Z,11.23
2023-04-10T01:03:13.189Z,13.95
2023-04-10T01:05:53.215Z,10.30
2023-04-10T01:08:30.820Z,9.18
2023-04-10T01:11:13.538Z,22.40
2023-04-10T01:13:46.572Z,14.32
2023-04-10T01:16:24.976Z,11.57
2023-04-10T01:19:14.887Z,23.08
2023-04-10T01:21:42.816Z,14.27
2023-04-10T01:24:36.109Z,13.90
2023-04-10T01:27:32.143Z,10.75
2023-04-10T01:30:02.941Z,14.90
2023-04-10T01:32:35.677Z,13.60
2023-04-10T01:35:07.574Z,12.63
2023-04-10T01:37:41.164Z,10.50
2023-04-10T01:40:14.417Z,10.63
2023-04-10T01:42:53.245Z,15.15
2023-04-10T01:45:29.033Z,13.52
2023-04-10T01:47:56.993Z,13.88
2023-04-10T01:50:26.074Z,12.93
2023-04-10T01:52:54.154Z,11.55
2023-04-10T01:55:24.939Z,16.73
2023-04-10T01:57:57.221Z,18.80
2023-04-10T02:00:26.012Z,14.05
2023-04-10T02:02:54.329Z,12.13
2023-04-10T02:05:26.310Z,11.27
2023-04-10T02:08:02.313Z,15.20
2023-04-10T02:10:32.772Z,12.07
2023-04-10T02:13:05.622Z,11.10
2023-04-10T02:15:35.239Z,16.77
2023-04-10T02:18:08.387Z,19.25
2023-04-10T02:20:36.309Z,20.63
2023-04-10T02:23:06.778Z,15.32
2023-04-10T02:25:35.170Z,13.40
2023-04-10T02:28:07.068Z,17.60
2023-04-10T02:30:35.290Z,16.17
2023-04-10T02:33:03.098Z,14.18
2023-04-10T02:35:32.478Z,16.02
2023-04-10T02:38:00.072Z,12.85
2023-04-10T02:40:27.895Z,17.83
2023-04-10T02:43:13.289Z,16.42
2023-04-10T02:45:41.970Z,15.02
2023-04-10T02:48:11.757Z,16.42
2023-04-10T02:50:39.330Z,14.85
2023-04-10T02:53:06.792Z,16.25
2023-04-10T02:55:37.005Z,17.38
2023-04-10T02:58:04.635Z,13.40
2023-04-10T03:00:32.064Z,14.75
2023-04-10T03:03:11.006Z,16.40
2023-04-10T03:05:49.672Z,14.73
2023-04-10T03:08:21.256Z,14.48
2023-04-10T03:10:48.869Z,12.13
2023-04-10T03:13:16.815Z,14.18
2023-04-10T03:15:44.536Z,18.00
2023-04-10T03:18:12.095Z,17.98
2023-04-10T03:20:43.769Z,18.75
2023-04-10T03:23:12.657Z,25.45
2023-04-10T03:25:41.315Z,17.40
2023-04-10T03:28:09.737Z,16.85
2023-04-10T03:30:37.606Z,24.48
2023-04-10T03:33:05.159Z,21.58
2023-04-10T03:35:32.766Z,16.35
2023-04-10T03:38:00.745Z,16.30
2023-04-10T03:40:28.354Z,14.43
2023-04-10T03:42:58.686Z,16.13
2023-04-10T03:45:26.238Z,13.02
2023-04-10T03:47:53.861Z,15.48
2023-04-10T03:50:21.949Z,10.65
2023-04-10T03:52:57.838Z,12.68
2023-04-10T03:55:26.827Z,13.15
2023-04-10T03:57:56.136Z,13.23
2023-04-10T04:00:27.693Z,12.27
2023-04-10T04:03:05.253Z,15.32
2023-04-10T04:05:53.267Z,13.20
2023-04-10T04:08:43.511Z,10.82
2023-04-10T04:11:38.623Z,11.07
2023-04-10T04:14:35.005Z,19.55
2023-04-10T04:17:18.470Z,12.93
2023-04-10T04:20:06.179Z,11.60
2023-04-10T04:22:52.315Z,13.70
2023-04-10T04:25:38.556Z,11.98
2023-04-10T04:28:09.863Z,20.80
2023-04-10T04:31:03.404Z,16.65
2023-04-10T04:33:49.186Z,17.08
2023-04-10T04:36:38.305Z,23.95
2023-04-10T04:39:41.156Z,20.73
2023-04-10T04:42:40.873Z,19.25
2023-04-10T04:45:16.950Z,18.10
2023-04-10T04:48:04.527Z,23.08
2023-04-10T04:53:42.897Z,17.17
2023-04-10T04:56:36.656Z,15.30
2023-04-10T04:59:30.515Z,17.13
2023-04-10T05:02:05.662Z,13.32
2023-04-10T05:04:56.503Z,19.63
2023-04-10T05:07:44.293Z,20.15
2023-04-10T05:10:24.175Z,14.40
2023-04-10T05:13:07.070Z,20.38
2023-04-10T05:15:45.098Z,23.10
2023-04-10T05:18:36.524Z,19.45
2023-04-10T05:21:19.257Z,24.60
2023-04-10T05:24:12.757Z,18.27
2023-04-10T05:26:59.090Z,20.98
2023-04-10T05:29:46.358Z,19.35
2023-04-10T05:32:37.846Z,15.98
2023-04-10T05:35:20.723Z,13.27
2023-04-10T05:37:56.838Z,16.80
2023-04-10T05:43:34.069Z,16.52
2023-04-10T05:46:09.549Z,15.57
2023-04-10T05:49:15.677Z,16.55
2023-04-10T05:52:05.987Z,14.40
2023-04-10T05:54:52.974Z,8.70
2023-04-10T05:57:27.402Z,12.98
2023-04-10T06:00:15.224Z,9.63
2023-04-10T06:03:04.503Z,11.02
2023-04-10T06:05:33.788Z,12.85
2023-04-10T06:08:05.377Z,12.48
2023-04-10T06:10:33.059Z,11.15
2023-04-10T06:13:00.952Z,8.35
2023-04-10T06:15:29.353Z,9.95
2023-04-10T06:17:57.832Z,10.63
2023-04-10T06:20:25.488Z,11.20
2023-04-10T06:22:53.689Z,11.88
2023-04-10T06:25:21.247Z,13.23
2023-04-10T06:27:49.044Z,7.97
2023-04-10T06:30:16.492Z,13.05
2023-04-10T06:32:44.801Z,10.20
2023-04-10T06:35:13.188Z,15.70
2023-04-10T06:37:40.829Z,14.68
2023-04-10T06:40:10.878Z,18.83
2023-04-10T06:42:38.394Z,11.05
2023-04-10T06:45:29.024Z,11.77
2023-04-10T06:47:56.916Z,16.30
2023-04-10T06:50:24.373Z,18.45
2023-04-10T06:52:53.388Z,14.40
2023-04-10T06:55:20.891Z,20.23
2023-04-10T06:57:48.302Z,15.93
2023-04-10T07:00:16.197Z,14.20
2023-04-10T07:02:43.713Z,16.73
2023-04-10T07:05:11.404Z,12.88
2023-04-10T07:07:38.879Z,13.43
2023-04-10T07:10:07.233Z,12.75
2023-04-10T07:12:34.969Z,14.40
2023-04-10T07:15:02.463Z,14.77
2023-04-10T07:17:31.530Z,16.90
2023-04-10T07:19:59.118Z,9.25
2023-04-10T07:22:27.970Z,20.58
2023-04-10T07:24:55.404Z,12.93
2023-04-10T07:27:24.838Z,8.88
2023-04-10T07:29:56.875Z,6.25
2023-04-10T07:32:27.007Z,9.43
2023-04-10T07:34:54.892Z,6.22
2023-04-10T07:37:22.504Z,7.03
2023-04-10T07:39:49.908Z,7.93
2023-04-10T07:42:17.417Z,7.35
2023-04-10T07:44:45.021Z,9.55
2023-04-10T07:47:12.470Z,6.32
2023-04-10T07:49:39.935Z,10.70
2023-04-10T07:52:07.526Z,10.15
2023-04-10T07:54:35.051Z,8.77
2023-04-10T07:57:02.616Z,8.20
2023-04-10T07:59:30.083Z,10.45
2023-04-10T08:01:57.622Z,11.60
2023-04-10T08:04:25.486Z,8.63
2023-04-10T08:06:53.182Z,12.68
2023-04-10T08:09:20.908Z,10.80
2023-04-10T08:11:48.387Z,7.35
2023-04-10T08:14:18.443Z,9.88
2023-04-10T08:16:46.206Z,10.52
2023-04-10T08:19:13.729Z,11.80
2023-04-10T08:21:41.252Z,11.75
2023-04-10T08:24:08.693Z,13.77
2023-04-10T08:26:36.328Z,14.93
2023-04-10T08:29:03.776Z,12.70
2023-04-10T08:31:31.518Z,10.25
2023-04-10T08:33:59.626Z,9.43
2023-04-10T08:36:27.900Z,9.38
2023-04-10T08:38:55.510Z,8.55
2023-04-10T08:41:23.011Z,9.90
2023-04-10T08:43:51.092Z,8.80
2023-04-10T08:46:18.620Z,14.10
2023-04-10T08:48:52.920Z,10.57
2023-04-10T08:51:26.686Z,11.23
2023-04-10T08:54:03.613Z,14.98
2023-04-10T08:59:03.053Z,8.48
2023-04-10T09:01:31.428Z,9.38
2023-04-10T09:03:59.781Z,10.82
2023-04-10T09:06:27.800Z,14.65
2023-04-10T09:08:55.442Z,10.93
2023-04-10T09:11:22.958Z,14.82
2023-04-10T09:13:51.179Z,9.32
2023-04-10T09:16:30.482Z,15.55
2023-04-10T09:19:00.038Z,14.45
2023-04-10T09:21:27.532Z,10.25
2023-04-10T09:24:01.511Z,11.40
2023-04-10T09:26:30.988Z,13.73
2023-04-10T09:29:10.436Z,8.82
2023-04-10T09:31:39.390Z,12.38
2023-04-10T09:34:14.808Z,9.85
2023-04-10T09:36:54.780Z,11.10
2023-04-10T09:39:23.180Z,12.60
2023-04-10T09:41:55.684Z,9.85
2023-04-10T09:44:31.051Z,12.15
2023-04-10T09:47:00.346Z,10.95
2023-04-10T09:49:28.053Z,11.65
2023-04-10T09:51:55.757Z,9.27
2023-04-10T09:54:37.146Z,15.10
2023-04-10T09:57:05.778Z,9.55
2023-04-10T09:59:34.863Z,11.80
2023-04-10T10:02:02.731Z,15.00
2023-04-10T10:04:30.766Z,8.73
2023-04-10T10:06:58.329Z,14.48
2023-04-10T10:09:28.268Z,9.65
2023-04-10T10:11:58.606Z,11.10
2023-04-10T10:14:29.188Z,7.40
2023-04-10T10:17:01.140Z,12.98
2023-04-10T10:19:41.337Z,11.07
2023-04-10T10:22:11.138Z,14.75
2023-04-10T10:24:40.279Z,14.40
2023-04-10T10:27:10.070Z,9.65
2023-04-10T10:29:39.569Z,11.60
2023-04-10T10:32:08.595Z,9.07
2023-04-10T10:34:36.825Z,13.52
2023-04-10T10:37:06.046Z,10.95
2023-04-10T10:40:06.895Z,12.63
2023-04-10T10:42:55.573Z,8.18
2023-04-10T10:45:48.795Z,12.35
2023-04-10T10:48:16.438Z,8.30
2023-04-10T10:50:57.402Z,13.35
2023-04-10T10:53:44.795Z,10.98
2023-04-10T10:56:22.658Z,8.55
2023-04-10T10:58:57.625Z,11.05
2023-04-10T11:01:26.539Z,7.22
2023-04-10T11:03:54.134Z,10.15
2023-04-10T11:06:43.610Z,8.70
2023-04-10T11:09:52.359Z,12.80
2023-04-10T11:12:25.083Z,11.25
2023-04-10T11:15:00.733Z,10.32
2023-04-10T11:17:53.420Z,10.63
2023-04-10T11:20:28.670Z,13.30
2023-04-10T11:23:12.838Z,10.63
2023-04-10T11:25:52.074Z,11.95
2023-04-10T11:28:35.261Z,11.43
2023-04-10T11:31:16.216Z,11.38
2023-04-10T11:33:44.127Z,10.73
2023-04-10T11:36:16.095Z,7.80
2023-04-10T11:39:05.924Z,8.50
2023-04-10T11:41:35.647Z,7.60
2023-04-10T11:44:06.288Z,8.30
2023-04-10T11:46:38.234Z,10.98
2023-04-10T11:49:07.642Z,10.57
2023-04-10T11:51:35.459Z,8.00
2023-04-10T11:54:12.589Z,11.88
2023-04-10T11:56:45.689Z,12.68
2023-04-10T11:59:19.733Z,11.60
2023-04-10T12:01:47.504Z,12.98
2023-04-10T12:04:20.143Z,16.48
2023-04-10T12:06:58.166Z,9.32
2023-04-10T12:09:26.423Z,15.93
2023-04-10T12:11:59.956Z,11.25
2023-04-10T12:14:32.449Z,10.95
2023-04-10T12:17:02.016Z,11.63
2023-04-10T12:19:30.024Z,11.27
2023-04-10T12:21:59.683Z,21.17
2023-04-10T12:24:49.352Z,11.30
2023-04-10T12:27:23.702Z,10.52
2023-04-10T12:29:52.613Z,14.90
2023-04-10T12:32:20.753Z,11.30
2023-04-10T12:34:52.268Z,11.75
2023-04-10T12:37:20.873Z,13.35
2023-04-10T12:39:48.443Z,15.88
2023-04-10T12:42:23.248Z,11.30
2023-04-10T12:44:59.098Z,16.60
2023-04-10T12:47:28.220Z,17.13
2023-04-10T12:50:12.589Z,17.50
2023-04-10T12:53:02.694Z,10.68
2023-04-10T12:55:31.338Z,13.20
2023-04-10T12:57:58.974Z,17.05
2023-04-10T13:00:26.572Z,17.88
2023-04-10T13:02:54.300Z,11.50
2023-04-10T13:05:22.149Z,13.40
2023-04-10T13:07:52.935Z,11.70
2023-04-10T13:10:20.604Z,13.30
2023-04-10T13:12:48.059Z,14.07
2023-04-10T13:15:17.038Z,15.35
2023-04-10T13:17:44.551Z,11.82
2023-04-10T13:20:13.613Z,13.77
2023-04-10T13:22:41.299Z,14.48
2023-04-10T13:25:09.171Z,15.45
2023-04-10T13:27:36.697Z,14.20
2023-04-10T13:30:04.498Z,13.30
2023-04-10T13:32:32.298Z,15.93
2023-04-10T13:34:59.759Z,14.50
2023-04-10T13:37:27.424Z,14.48
2023-04-10T13:39:55.928Z,12.57
2023-04-10T13:42:23.485Z,12.32
2023-04-10T13:44:50.960Z,15.77
2023-04-10T13:47:18.584Z,12.35
2023-04-10T13:49:46.042Z,15.30
2023-04-10T13:52:13.700Z,16.40
2023-04-10T13:54:41.146Z,16.77
2023-04-10T13:57:08.568Z,19.10
2023-04-10T13:59:36.199Z,13.90
2023-04-10T14:02:06.332Z,30.17
2023-04-10T14:04:33.966Z,15.65
2023-04-10T14:07:02.225Z,14.07
2023-04-10T14:09:29.851Z,12.98
2023-04-10T14:11:57.986Z,15.88
2023-04-10T14:14:25.594Z,27.42
2023-04-10T14:16:53.100Z,26.92
2023-04-10T14:19:23.368Z,17.00
2023-04-10T14:21:50.969Z,22.50
2023-04-10T14:24:18.388Z,20.55
2023-04-10T14:26:45.865Z,22.45
2023-04-10T14:29:14.748Z,16.33
2023-04-10T14:31:56.618Z,12.50
2023-04-10T14:34:25.072Z,18.73
2023-04-10T14:36:55.963Z,15.93
2023-04-10T14:39:24.955Z,14.77
2023-04-10T14:41:52.721Z,21.23
2023-04-10T14:44:20.376Z,17.70
2023-04-10T14:46:48.244Z,21.42
2023-04-10T14:49:15.880Z,29.95
2023-04-10T14:51:44.879Z,24.48
2023-04-10T14:54:12.482Z,17.88
2023-04-10T14:56:40.236Z,18.13
2023-04-10T14:59:08.452Z,15.95
2023-04-10T15:01:36.264Z,21.17
2023-04-10T15:04:03.800Z,18.05
2023-04-10T15:06:33.497Z,15.43
2023-04-10T15:09:01.147Z,22.80
2023-04-10T15:11:28.631Z,14.90
2023-04-10T15:13:56.841Z,20.60
2023-04-10T15:16:24.287Z,19.63
2023-04-10T15:18:51.824Z,20.02
2023-04-10T15:21:19.564Z,20.23
2023-04-10T15:23:47.015Z,27.98
2023-04-10T15:26:16.120Z,27.30
2023-04-10T15:28:43.667Z,17.83
2023-04-10T15:31:11.666Z,19.70
2023-04-10T15:33:40.053Z,24.52
2023-04-10T15:36:08.190Z,17.35
2023-04-10T15:38:36.491Z,26.67
2023-04-10T15:41:11.394Z,20.90
2023-04-10T15:43:39.418Z,16.20
2023-04-10T15:46:07.108Z,24.23
2023-04-10T15:48:34.744Z,26.23
2023-04-10T15:51:06.154Z,25.90
2023-04-10T15:53:34.760Z,30.08
2023-04-10T15:56:05.027Z,22.15
2023-04-10T15:58:33.809Z,27.38
2023-04-10T16:01:04.680Z,37.80
2023-04-10T16:03:32.501Z,21.83
2023-04-10T16:06:00.210Z,34.75
2023-04-10T16:08:28.049Z,20.90
2023-04-10T16:10:56.943Z,26.30
2023-04-10T16:13:24.633Z,27.25
2023-04-10T16:15:54.424Z,22.08
2023-04-10T16:18:22.198Z,28.75
2023-04-10T16:20:49.679Z,21.42
2023-04-10T16:23:17.325Z,25.73
2023-04-10T16:25:44.863Z,31.02
2023-04-10T16:28:12.475Z,21.88
2023-04-10T16:30:40.161Z,24.58
2023-04-10T16:33:07.895Z,23.75
2023-04-10T16:35:35.487Z,27.27
2023-04-10T16:38:03.045Z,29.90
2023-04-10T16:40:33.028Z,36.10
2023-04-10T16:43:02.128Z,28.80
2023-04-10T16:45:30.187Z,24.52
2023-04-10T16:47:57.752Z,17.40
2023-04-10T16:50:25.629Z,20.83
2023-04-10T16:52:53.186Z,28.40
2023-04-10T16:55:20.916Z,25.15
2023-04-10T16:57:48.382Z,39.25
2023-04-10T17:00:16.167Z,28.20
2023-04-10T17:02:44.161Z,39.67
2023-04-10T17:05:13.635Z,22.70
2023-04-10T17:07:42.484Z,23.70
2023-04-10T17:10:11.438Z,23.08
2023-04-10T17:12:39.992Z,23.60
2023-04-10T17:15:07.874Z,22.50
2023-04-10T17:17:35.707Z,20.92
2023-04-10T17:20:03.542Z,20.30
2023-04-10T17:22:31.408Z,19.83
2023-04-10T17:25:01.462Z,24.13
2023-04-10T17:27:30.261Z,20.77
2023-04-10T17:29:58.935Z,23.40
2023-04-10T17:32:26.712Z,22.65
2023-04-10T17:34:56.701Z,21.08
2023-04-10T17:37:24.297Z,24.13
2023-04-10T17:39:54.210Z,17.83
2023-04-10T17:42:23.259Z,25.38
2023-04-10T17:44:50.831Z,18.98
2023-04-10T17:47:18.394Z,28.67
2023-04-10T17:49:45.989Z,24.77
2023-04-10T17:52:14.075Z,16.40
2023-04-10T17:54:44.007Z,29.00
2023-04-10T17:57:11.780Z,24.88
2023-04-10T17:59:41.891Z,23.42
2023-04-10T18:02:09.950Z,28.40
2023-04-10T18:04:37.492Z,29.98
2023-04-10T18:07:05.140Z,25.83
2023-04-10T18:09:33.570Z,18.23
2023-04-10T18:12:01.526Z,21.52
2023-04-10T18:14:29.011Z,25.25
2023-04-10T18:16:56.632Z,17.20
2023-04-10T18:19:24.247Z,21.73
2023-04-10T18:21:52.286Z,19.20
2023-04-10T18:24:19.858Z,19.55
2023-04-10T18:26:49.254Z,25.08
2023-04-10T18:29:16.880Z,19.33
2023-04-10T18:31:44.307Z,26.27
2023-04-10T18:34:11.966Z,26.13
2023-04-10T18:36:39.504Z,19.88
2023-04-10T18:39:07.100Z,22.48
2023-04-10T18:41:34.624Z,24.00
2023-04-10T18:44:05.589Z,26.48
2023-04-10T18:46:33.757Z,22.08
2023-04-10T18:49:01.945Z,24.83
2023-04-10T18:51:29.672Z,24.55
2023-04-10T18:53:57.271Z,26.42
2023-04-10T18:56:24.995Z,23.38
2023-04-10T18:58:52.443Z,23.55
2023-04-10T19:01:20.040Z,25.17
2023-04-10T19:03:50.148Z,27.02
2023-04-10T19:06:23.997Z,23.30
2023-04-10T19:08:55.949Z,18.65
2023-04-10T19:11:23.509Z,26.42
2023-04-10T19:13:51.105Z,17.55
2023-04-10T19:17:05.366Z,25.20
2023-04-10T19:27:59.871Z,23.67
2023-04-10T19:30:27.527Z,29.08
2023-04-10T19:32:55.900Z,41.25
2023-04-10T19:35:23.640Z,49.22
2023-04-10T19:37:51.563Z,30.80
2023-04-10T19:40:19.522Z,24.38
2023-04-10T19:42:46.970Z,23.50
2023-04-10T19:45:15.060Z,35.55
2023-04-10T19:47:42.529Z,25.00
2023-04-10T19:50:10.434Z,22.48
2023-04-10T19:52:38.360Z,29.45
2023-04-10T19:55:06.419Z,20.88
2023-04-10T19:57:33.973Z,21.40
2023-04-10T20:00:01.603Z,25.05
2023-04-10T20:02:40.551Z,18.55
2023-04-10T20:05:08.622Z,28.50
2023-04-10T20:07:36.689Z,35.88
2023-04-10T20:10:04.963Z,30.98
2023-04-10T20:12:35.779Z,28.60
2023-04-10T20:15:04.701Z,48.53
2023-04-10T20:17:32.297Z,26.20
2023-04-10T20:19:59.796Z,33.47
2023-04-10T20:22:27.336Z,28.80
2023-04-10T20:24:54.793Z,27.27
2023-04-10T20:27:22.242Z,31.35
2023-04-10T20:29:50.288Z,28.63
2023-04-10T20:32:17.734Z,24.02
2023-04-10T20:34:45.377Z,30.95
2023-04-10T20:37:14.909Z,35.40
2023-04-10T20:39:42.401Z,33.92
2023-04-10T20:42:09.866Z,32.38
2023-04-10T20:44:37.910Z,33.67
2023-04-10T20:47:06.685Z,36.92
2023-04-10T20:49:34.461Z,33.30
2023-04-10T20:52:04.168Z,26.45
2023-04-10T20:54:39.228Z,34.60
2023-04-10T20:57:06.787Z,35.90
2023-04-10T20:59:36.080Z,28.48
2023-04-10T21:02:03.899Z,37.58
2023-04-10T21:04:32.708Z,34.13
2023-04-10T21:07:00.203Z,32.53
2023-04-10T21:09:30.064Z,28.42
2023-04-10T21:11:58.120Z,29.42
2023-04-10T21:14:25.693Z,30.80
2023-04-10T21:16:53.266Z,36.10
2023-04-10T21:19:20.935Z,34.92
2023-04-10T21:21:48.496Z,28.90
2023-04-10T21:24:16.051Z,32.17
2023-04-10T21:26:43.531Z,24.90
2023-04-10T21:29:11.097Z,27.80
2023-04-10T21:31:38.547Z,24.42
2023-04-10T21:34:06.206Z,34.22
2023-04-10T21:36:33.720Z,27.63
2023-04-10T21:39:01.421Z,25.15
2023-04-10T21:41:28.885Z,30.55
2023-04-10T21:44:00.306Z,36.67
2023-04-10T21:46:28.076Z,32.75
2023-04-10T21:48:55.964Z,36.92
2023-04-10T21:51:26.362Z,30.27
2023-04-10T21:53:54.666Z,34.42
2023-04-10T21:56:22.197Z,22.63
2023-04-10T21:58:49.740Z,22.52
2023-04-10T22:01:17.276Z,22.85
2023-04-10T22:03:44.970Z,24.42
2023-04-10T22:06:12.452Z,23.40
2023-04-10T22:08:41.440Z,23.90
2023-04-10T22:11:09.098Z,23.85
2023-04-10T22:13:36.603Z,22.90
2023-04-10T22:16:05.438Z,21.85
2023-04-10T22:18:33.023Z,27.23
2023-04-10T22:21:00.792Z,33.50
2023-04-10T22:23:28.334Z,25.83
2023-04-10T22:25:55.976Z,31.10
2023-04-10T22:28:23.517Z,25.63
2023-04-10T22:30:51.171Z,27.88
2023-04-10T22:33:18.802Z,23.13
2023-04-10T22:35:46.412Z,32.20
2023-04-10T22:38:14.044Z,30.70
2023-04-10T22:40:41.628Z,28.25
2023-04-10T22:43:10.047Z,22.23
2023-04-10T22:45:37.518Z,37.80
2023-04-10T22:48:05.065Z,31.58
2023-04-10T22:50:32.714Z,38.28
2023-04-10T22:53:02.513Z,28.20
2023-04-10T22:55:30.112Z,30.88
2023-04-10T22:57:57.547Z,34.15
2023-04-10T23:00:25.170Z,40.95
2023-04-10T23:03:00.177Z,35.88
2023-04-10T23:05:27.941Z,32.58
2023-04-10T23:07:56.029Z,36.90
2023-04-10T23:10:23.457Z,33.92
2023-04-10T23:12:50.918Z,33.50
2023-04-10T23:15:18.583Z,34.22
2023-04-10T23:17:46.067Z,34.40
2023-04-10T23:20:13.660Z,42.83
2023-04-10T23:22:41.147Z,35.38
2023-04-10T23:25:08.702Z,38.30
2023-04-10T23:27:36.166Z,32.03
2023-04-10T23:30:04.243Z,38.42
2023-04-10T23:32:31.725Z,45.97
2023-04-10T23:34:59.766Z,40.45
2023-04-10T23:37:27.367Z,38.88
2023-04-10T23:39:54.840Z,40.13
2023-04-10T23:42:22.403Z,40.47
2023-04-10T23:44:49.852Z,38.70
2023-04-10T23:47:17.454Z,38.30
2023-04-10T23:49:45.004Z,50.10
2023-04-10T23:52:12.510Z,43.10
2023-04-10T23:54:40.025Z,34.40
2023-04-10T23:57:07.579Z,35.38
2023-04-10T23:59:35.196Z,35.97
